Alagoinha, Brazil

11:29 AM BRST on October 31, 2014 (GMT -0200)
DEP. L. E. Magalhaes International | Change Station
CLOSE
Current Station
Airport
Location: Salvador Airport,
Elevation: 20 ft
Nearby Weather Stations

Elev 20 ft 12.91 °S, 38.33 °W | Updated 29 minutes ago

Partly Cloudy
Partly Cloudy
84 °F
Feels Like 88 °F
N
12
Wind Variable Wind from East

Today
High -- | Low -- °F
--% Chance of Precip.
Yesterday
High -- | Low -- °F
Precip. -- in
6:01 AM 6:34 PM
First Quarter, 55% visible
Pressure 30.04 in
Visibility 6.2 miles
Clouds Scattered Clouds 1700 ft
Few 2000 ft
Heat Index 88 °F
Dew Point 70 °F
Humidity 62%
Rainfall 0.00 in
Snow Depth Not available.
UV 14 out of 12
Pollen Not available.
Air Quality Not available.
Flu Activity Not available.
METAR SBSV 311300Z 10010KT 9999 SCT017 FEW020TCU 29/21 Q1017

More Conditions Fewer Conditions

Pressure 30.04 in
Visibility 6.2 miles
Clouds Scattered Clouds 1700 ft
Few 2000 ft
Heat Index 88 °F
Dew Point 70 °F
Humidity 62%
Rainfall 0.00 in
Snow Depth Not available.
UV 14 out of 12
Pollen Not available.
Air Quality Not available.
Flu Activity Not available.
METAR SBSV 311300Z 10010KT 9999 SCT017 FEW020TCU 29/21 Q1017

More Conditions Fewer Conditions

10-Day Weather Forecast

Almanac

Astronomy

Oct. 31, 2014 Rise Set
Actual Time
Civil Twilight
Nautical Twilight
Astronomical Twilight
Moon
Length of Visible Light
Length of Day
Tomorrow will be .
, % of the Moon is Illuminated

Today's Extremes

Country Highs Country Lows

Community

WunderPhotos

Upload Photos

1,766,608 photos uploaded!

WunderBlogs® & News

Nearby

Air Quality

  Air Quality AQ Index Pollutant
Not available.

Snow Depth

Station Depth Elevation

Earthquake Activity

City Distance Mag. Time & Date
Minimum magnitude displayed is 2.5.

Coastal Water Temperatures

Place Temperature

Nearby Weather Stations